Time;durP1;ratioP1;P1;durP2;ratioP2;P2;SDS_P1;SDS_P2;PMS_P1;PMS_P2;Temp;Humidity;BMP_temperature;BMP_pressure;BME280_temperature;BME280_humidity;BME280_pressure;Samples;Min_cycle;Max_cycle;Signal;HPM_P1;HPM_P2
2023/09/24 00:01:39;;;;;;;6.10;2.38;;;19.90;51.60;;;;;;5093769;28;20182;-58
2023/09/24 00:04:11;;;;;;;5.55;2.28;;;19.90;51.60;;;;;;5058352;28;20290;-53
2023/09/24 00:06:38;;;;;;;5.57;2.35;;;19.90;51.70;;;;;;5092621;28;20270;-57
2023/09/24 00:09:05;;;;;;;4.70;2.53;;;19.90;51.60;;;;;;5093162;28;20218;-59
2023/09/24 00:11:33;;;;;;;5.10;2.55;;;19.90;51.60;;;;;;5093444;28;20187;-53
2023/09/24 00:14:00;;;;;;;5.90;2.35;;;19.90;51.70;;;;;;5093605;28;20186;-56
2023/09/24 00:16:28;;;;;;;4.03;2.40;;;19.90;51.70;;;;;;5093358;28;20189;-54
2023/09/24 00:18:55;;;;;;;6.15;2.55;;;19.90;51.80;;;;;;5092966;28;20717;-59
2023/09/24 00:21:25;;;;;;;4.68;2.55;;;19.90;51.80;;;;;;5093362;28;20218;-59
2023/09/24 00:23:52;;;;;;;4.55;2.58;;;19.90;52.40;;;;;;5093442;28;20201;-59
2023/09/24 00:26:19;;;;;;;4.00;2.17;;;19.90;51.80;;;;;;5093059;28;20194;-55
2023/09/24 00:28:47;;;;;;;4.32;2.50;;;19.90;51.80;;;;;;5092914;28;20313;-55
2023/09/24 00:31:14;;;;;;;4.40;2.38;;;19.90;51.80;;;;;;5092937;28;20277;-60
2023/09/24 00:33:42;;;;;;;4.70;2.40;;;19.90;51.80;;;;;;5092917;28;20190;-58
2023/09/24 00:36:09;;;;;;;4.78;2.40;;;19.90;51.90;;;;;;5093203;28;20186;-56
2023/09/24 00:38:39;;;;;;;5.90;2.80;;;19.90;51.90;;;;;;5092991;28;20658;-57
2023/09/24 00:41:06;;;;;;;4.72;2.22;;;19.90;51.90;;;;;;5092733;28;20197;-54
2023/09/24 00:43:36;;;;;;;5.13;2.50;;;19.90;52.00;;;;;;5093176;28;20217;-59
2023/09/24 00:46:05;;;;;;;5.68;2.42;;;19.90;52.00;;;;;;5092994;28;20186;-53
2023/09/24 00:48:34;;;;;;;4.32;2.20;;;19.90;52.00;;;;;;5092832;28;20253;-60
2023/09/24 00:51:02;;;;;;;3.85;2.15;;;19.90;52.00;;;;;;5092908;28;20204;-61
2023/09/24 00:53:31;;;;;;;4.38;2.28;;;19.90;52.10;;;;;;5092508;28;20272;-57
2023/09/24 00:56:00;;;;;;;5.22;2.60;;;19.90;52.10;;;;;;5097768;28;20229;-57
2023/09/24 00:58:30;;;;;;;4.85;2.40;;;19.90;52.10;;;;;;5113404;28;20321;-54
2023/09/24 01:00:58;;;;;;;7.38;2.78;;;19.80;52.10;;;;;;5113147;28;20193;-58
2023/09/24 01:03:25;;;;;;;4.43;2.53;;;19.90;52.20;;;;;;5113135;28;20223;-54
2023/09/24 01:05:53;;;;;;;4.22;2.17;;;19.80;52.10;;;;;;5113071;28;20185;-54
2023/09/24 01:08:22;;;;;;;4.00;2.45;;;19.80;52.10;;;;;;5112422;28;20225;-58
2023/09/24 01:10:50;;;;;;;4.10;2.67;;;19.90;52.20;;;;;;5112799;28;20185;-60
2023/09/24 01:13:20;;;;;;;4.88;2.70;;;19.80;52.10;;;;;;5112489;28;20217;-60
2023/09/24 01:15:58;;;;;;;5.85;2.38;;;19.80;52.20;;;;;;5112809;28;20189;-59
2023/09/24 01:21:20;;;;;;;5.35;2.50;;;19.80;52.30;;;;;;5110510;28;20253;-58
2023/09/24 01:23:49;;;;;;;5.10;2.88;;;19.80;52.30;;;;;;5112466;28;20204;-56
2023/09/24 01:26:18;;;;;;;3.22;1.95;;;19.80;52.30;;;;;;5111980;28;20593;-55
2023/09/24 01:28:47;;;;;;;5.03;2.40;;;19.80;52.40;;;;;;5112575;28;20228;-58
2023/09/24 01:31:15;;;;;;;4.32;2.60;;;19.80;52.40;;;;;;5112771;28;20544;-57
2023/09/24 01:33:43;;;;;;;5.30;2.50;;;19.80;52.40;;;;;;5112404;28;20227;-54
2023/09/24 01:36:10;;;;;;;4.88;2.42;;;19.80;52.40;;;;;;5112394;28;20231;-51
2023/09/24 01:38:40;;;;;;;5.18;2.30;;;19.80;52.40;;;;;;5112194;28;20747;-52
2023/09/24 01:41:10;;;;;;;7.97;2.50;;;19.80;52.50;;;;;;5112475;28;20188;-55
2023/09/24 01:43:37;;;;;;;5.53;2.33;;;19.80;52.40;;;;;;5112412;28;20562;-56
2023/09/24 01:46:07;;;;;;;4.20;2.08;;;19.80;52.50;;;;;;5112155;28;20229;-54
2023/09/24 01:48:36;;;;;;;4.88;2.38;;;19.80;52.60;;;;;;5112377;28;20229;-56
2023/09/24 01:51:07;;;;;;;3.95;2.20;;;19.80;52.60;;;;;;5112433;28;20196;-55
2023/09/24 01:53:35;;;;;;;5.55;2.20;;;19.80;52.60;;;;;;5112129;28;20213;-53
2023/09/24 01:56:04;;;;;;;4.70;2.60;;;19.80;52.60;;;;;;5111823;28;20229;-58
2023/09/24 01:58:33;;;;;;;6.68;2.47;;;19.80;52.70;;;;;;5112166;28;20267;-56
2023/09/24 02:01:02;;;;;;;7.95;2.40;;;19.80;52.70;;;;;;5112112;28;20201;-57
2023/09/24 02:03:29;;;;;;;5.05;2.55;;;19.80;52.70;;;;;;5112386;28;20215;-57
2023/09/24 02:05:57;;;;;;;4.05;2.63;;;19.80;52.80;;;;;;5112005;28;20643;-57
2023/09/24 02:08:25;;;;;;;4.15;2.38;;;19.80;52.80;;;;;;5111371;28;20252;-59
2023/09/24 02:10:52;;;;;;;8.02;2.38;;;19.80;52.80;;;;;;5111835;28;20182;-58
2023/09/24 02:13:20;;;;;;;5.70;2.05;;;19.80;52.90;;;;;;5112176;28;20237;-61
2023/09/24 02:15:50;;;;;;;4.68;2.30;;;19.80;52.90;;;;;;5109815;28;20185;-52
2023/09/24 02:18:17;;;;;;;5.22;2.15;;;19.80;52.90;;;;;;5088600;28;20232;-51
2023/09/24 02:20:47;;;;;;;5.65;2.28;;;19.80;52.90;;;;;;5091555;28;20187;-58
2023/09/24 02:23:15;;;;;;;4.68;2.03;;;19.80;52.90;;;;;;5091448;28;20301;-58
2023/09/24 02:25:44;;;;;;;3.78;2.00;;;19.80;53.00;;;;;;5091956;28;20190;-56
2023/09/24 02:28:12;;;;;;;6.18;3.08;;;19.80;53.00;;;;;;5092074;28;20218;-52
2023/09/24 02:30:40;;;;;;;5.20;2.20;;;19.80;53.00;;;;;;5095222;28;20312;-56
2023/09/24 02:33:48;;;;;;;4.25;1.85;;;19.80;53.00;;;;;;5095229;28;20221;-56
2023/09/24 02:36:33;;;;;;;6.55;2.45;;;19.80;53.10;;;;;;5076853;28;20198;-53
2023/09/24 02:39:00;;;;;;;4.45;2.28;;;19.80;53.10;;;;;;5090595;28;20201;-58
2023/09/24 02:41:29;;;;;;;7.05;2.58;;;19.80;53.10;;;;;;5095315;28;20251;-57
2023/09/24 02:43:56;;;;;;;3.90;2.10;;;19.80;53.10;;;;;;5095366;28;20186;-55
2023/09/24 02:46:23;;;;;;;8.63;2.83;;;19.80;53.20;;;;;;5095135;28;20190;-58
2023/09/24 02:48:52;;;;;;;4.55;2.45;;;19.80;53.20;;;;;;5095231;28;20234;-56
2023/09/24 02:51:20;;;;;;;6.82;2.67;;;19.80;53.20;;;;;;5094887;28;20194;-56
2023/09/24 02:53:47;;;;;;;4.50;2.25;;;19.80;53.20;;;;;;5095013;28;20218;-56
2023/09/24 02:56:17;;;;;;;3.63;2.10;;;19.80;53.80;;;;;;5094854;28;20249;-55
2023/09/24 02:58:44;;;;;;;4.57;2.30;;;19.80;53.20;;;;;;5094607;28;20737;-57
2023/09/24 03:01:16;;;;;;;6.63;2.35;;;19.70;53.10;;;;;;5094858;28;20194;-60
2023/09/24 03:03:43;;;;;;;4.55;2.15;;;19.80;53.20;;;;;;5094788;28;20225;-55
2023/09/24 03:06:13;;;;;;;4.80;2.58;;;19.80;53.20;;;;;;5094894;28;20235;-57
2023/09/24 03:08:40;;;;;;;3.55;2.05;;;19.80;53.20;;;;;;5094252;28;20832;-54
2023/09/24 03:11:15;;;;;;;3.80;2.22;;;19.80;53.20;;;;;;5094782;28;20197;-57
2023/09/24 03:13:42;;;;;;;5.25;2.17;;;19.80;53.30;;;;;;5094934;28;20214;-58
2023/09/24 03:16:09;;;;;;;4.50;2.30;;;19.80;53.30;;;;;;5094561;28;20277;-55
2023/09/24 03:18:36;;;;;;;4.25;2.20;;;19.70;53.30;;;;;;5094704;28;20218;-57
2023/09/24 03:21:06;;;;;;;5.15;2.33;;;19.80;53.30;;;;;;5094310;28;20190;-56
2023/09/24 03:23:36;;;;;;;3.65;1.83;;;19.80;53.40;;;;;;5086338;28;20267;-56
2023/09/24 03:26:03;;;;;;;4.43;2.08;;;19.70;53.30;;;;;;5094640;28;20194;-56
2023/09/24 03:28:31;;;;;;;4.68;2.42;;;19.70;53.30;;;;;;5094435;28;20267;-62
2023/09/24 03:30:58;;;;;;;3.58;1.98;;;19.80;53.40;;;;;;5094212;28;20214;-59
2023/09/24 03:33:26;;;;;;;5.22;2.35;;;19.70;53.30;;;;;;5093930;28;20297;-58
2023/09/24 03:35:53;;;;;;;5.13;2.22;;;19.70;53.30;;;;;;5099644;28;20198;-57
2023/09/24 03:38:20;;;;;;;5.07;2.10;;;19.80;53.40;;;;;;5099986;28;20221;-58
2023/09/24 03:40:48;;;;;;;5.85;2.30;;;19.70;53.30;;;;;;5110986;28;20212;-56
2023/09/24 03:43:15;;;;;;;4.20;2.35;;;19.70;53.30;;;;;;5112844;28;20220;-59
2023/09/24 03:45:43;;;;;;;4.38;2.10;;;19.70;53.30;;;;;;5093571;28;20281;-59
2023/09/24 03:48:10;;;;;;;3.83;2.22;;;19.70;53.30;;;;;;5094256;28;20217;-57
2023/09/24 03:50:54;;;;;;;4.43;2.05;;;19.70;53.40;;;;;;5093942;28;20218;-59
2023/09/24 03:53:21;;;;;;;4.45;2.05;;;19.70;53.40;;;;;;5091125;28;20217;-55
2023/09/24 03:55:50;;;;;;;3.90;1.90;;;19.70;53.40;;;;;;5093718;28;20226;-57
2023/09/24 03:58:17;;;;;;;5.93;2.05;;;19.70;53.40;;;;;;5093433;28;20271;-55
2023/09/24 04:00:45;;;;;;;5.03;2.08;;;19.70;53.40;;;;;;5093269;28;20683;-55
2023/09/24 04:03:13;;;;;;;6.68;2.22;;;19.70;53.40;;;;;;5093980;28;20253;-58
2023/09/24 04:05:41;;;;;;;5.20;2.05;;;19.70;54.10;;;;;;5093783;28;20183;-55
2023/09/24 04:08:08;;;;;;;4.38;2.22;;;19.70;53.40;;;;;;5093494;28;20217;-57
2023/09/24 04:10:36;;;;;;;4.53;2.35;;;19.70;53.40;;;;;;5093527;28;20657;-58
2023/09/24 04:13:05;;;;;;;4.32;2.38;;;19.70;53.50;;;;;;5093721;28;20221;-57
2023/09/24 04:15:33;;;;;;;5.20;2.10;;;19.70;53.50;;;;;;5093090;28;20281;-59
2023/09/24 04:18:00;;;;;;;4.78;2.38;;;19.70;53.50;;;;;;5093377;28;20309;-60
2023/09/24 04:20:29;;;;;;;3.83;2.30;;;19.70;54.10;;;;;;5093465;28;20234;-57
2023/09/24 04:22:56;;;;;;;3.42;2.08;;;19.70;53.50;;;;;;5093016;28;20214;-54
2023/09/24 04:25:24;;;;;;;4.07;1.90;;;19.70;53.50;;;;;;5093386;28;20205;-57
2023/09/24 04:27:51;;;;;;;4.68;1.90;;;19.70;53.60;;;;;;5093379;28;20254;-57
2023/09/24 04:30:22;;;;;;;5.78;2.25;;;19.70;53.50;;;;;;5092882;28;20225;-57
2023/09/24 04:32:52;;;;;;;3.95;2.20;;;19.70;53.50;;;;;;5093138;28;20213;-56
2023/09/24 04:35:20;;;;;;;4.57;2.20;;;19.70;53.60;;;;;;5093190;28;20194;-59
2023/09/24 04:37:47;;;;;;;4.78;2.33;;;19.70;53.60;;;;;;5092788;28;20304;-58
2023/09/24 04:40:15;;;;;;;6.60;2.30;;;19.70;53.60;;;;;;5092853;28;20281;-55
2023/09/24 04:42:43;;;;;;;2.92;2.00;;;19.70;53.60;;;;;;5093196;28;20245;-59
2023/09/24 04:45:11;;;;;;;3.95;2.40;;;19.70;53.60;;;;;;5092495;28;20273;-58
2023/09/24 04:47:40;;;;;;;3.85;2.20;;;19.70;53.60;;;;;;5092987;28;20297;-58
2023/09/24 04:50:10;;;;;;;3.10;2.05;;;19.70;53.60;;;;;;5092877;28;20304;-58
2023/09/24 04:52:38;;;;;;;5.35;2.08;;;19.70;53.60;;;;;;5092179;28;20224;-54
2023/09/24 04:55:06;;;;;;;4.00;2.28;;;19.70;53.60;;;;;;5092845;28;20243;-57
2023/09/24 04:57:34;;;;;;;4.45;2.13;;;19.70;53.70;;;;;;5092343;28;20245;-57
2023/09/24 05:00:01;;;;;;;3.55;1.95;;;19.70;53.70;;;;;;5092576;28;20209;-54
2023/09/24 05:02:29;;;;;;;3.85;2.08;;;19.70;53.70;;;;;;5092308;28;20222;-52
2023/09/24 05:04:58;;;;;;;4.80;1.98;;;19.70;53.70;;;;;;5092391;28;20347;-58
2023/09/24 05:10:25;;;;;;;4.85;2.05;;;19.70;53.70;;;;;;5049604;28;20239;-60
2023/09/24 05:12:52;;;;;;;4.18;1.95;;;19.70;53.80;;;;;;5089438;28;20271;-54
2023/09/24 05:15:19;;;;;;;5.10;2.20;;;19.70;53.80;;;;;;5092279;28;20635;-55
2023/09/24 05:17:47;;;;;;;4.50;2.35;;;19.70;53.80;;;;;;5092502;28;20225;-58
2023/09/24 05:20:16;;;;;;;5.32;2.05;;;19.70;53.80;;;;;;5092517;28;20197;-57
2023/09/24 05:22:43;;;;;;;4.05;1.60;;;19.60;53.70;;;;;;5092312;28;20210;-59
2023/09/24 05:25:10;;;;;;;7.63;2.33;;;19.70;53.80;;;;;;5092492;28;20182;-59
2023/09/24 05:27:38;;;;;;;3.92;2.03;;;19.70;53.80;;;;;;5092454;28;20229;-59
2023/09/24 05:30:07;;;;;;;4.03;1.85;;;19.70;54.50;;;;;;5092049;28;20218;-57
2023/09/24 05:32:34;;;;;;;6.32;1.95;;;19.70;53.90;;;;;;5092422;28;20241;-57
2023/09/24 05:35:02;;;;;;;6.70;2.20;;;19.70;53.80;;;;;;5092144;28;20190;-54
2023/09/24 05:37:30;;;;;;;3.83;1.95;;;19.70;53.90;;;;;;5092033;28;20719;-58
2023/09/24 05:39:58;;;;;;;5.22;1.85;;;19.70;53.90;;;;;;5091864;28;20182;-59
2023/09/24 05:42:25;;;;;;;4.07;2.42;;;19.70;53.90;;;;;;5092365;28;20316;-54
2023/09/24 05:44:52;;;;;;;2.35;1.83;;;19.70;53.90;;;;;;5091714;28;20253;-53
2023/09/24 05:47:19;;;;;;;5.63;2.22;;;19.70;53.90;;;;;;5092256;28;20210;-57
2023/09/24 05:49:46;;;;;;;3.45;1.90;;;19.70;53.90;;;;;;5092054;28;20267;-57
2023/09/24 05:52:14;;;;;;;4.90;1.98;;;19.60;53.90;;;;;;5092018;28;20213;-54
2023/09/24 05:54:43;;;;;;;3.47;1.83;;;19.70;53.90;;;;;;5091950;28;20641;-56
2023/09/24 05:57:10;;;;;;;5.82;1.98;;;19.60;53.90;;;;;;5092035;28;20233;-57
2023/09/24 05:59:38;;;;;;;4.65;2.45;;;19.60;53.90;;;;;;5091634;28;20197;-54
2023/09/24 06:02:06;;;;;;;3.70;1.95;;;19.70;54.00;;;;;;5092067;28;20214;-54
2023/09/24 06:04:33;;;;;;;4.72;2.17;;;19.70;54.00;;;;;;5096243;28;20197;-57
2023/09/24 06:07:00;;;;;;;4.10;2.45;;;19.70;54.00;;;;;;5095556;28;20187;-58
2023/09/24 06:09:30;;;;;;;3.78;1.90;;;19.60;53.90;;;;;;5096036;28;20255;-55
2023/09/24 06:11:58;;;;;;;6.30;2.22;;;19.60;53.90;;;;;;5095936;28;20276;-57
2023/09/24 06:14:26;;;;;;;4.57;2.05;;;19.70;54.10;;;;;;5095770;28;20190;-54
2023/09/24 06:16:53;;;;;;;4.50;2.05;;;19.60;54.00;;;;;;5095802;28;20187;-58
2023/09/24 06:19:20;;;;;;;4.13;2.05;;;19.60;54.00;;;;;;5095483;28;20186;-58
2023/09/24 06:21:52;;;;;;;4.20;1.95;;;19.70;54.10;;;;;;5095765;28;20208;-56
2023/09/24 06:24:20;;;;;;;5.40;2.33;;;19.60;54.00;;;;;;5095708;28;20182;-53
2023/09/24 06:26:47;;;;;;;3.90;1.90;;;19.60;54.00;;;;;;5095266;28;20643;-56
2023/09/24 06:29:16;;;;;;;2.70;1.67;;;19.60;54.00;;;;;;5095382;28;20190;-57
2023/09/24 06:31:47;;;;;;;5.18;2.30;;;19.70;54.10;;;;;;5095109;28;20304;-56
2023/09/24 06:34:15;;;;;;;4.47;2.20;;;19.60;54.10;;;;;;5095236;28;20182;-54
2023/09/24 06:36:42;;;;;;;4.95;1.98;;;19.70;54.20;;;;;;5095282;28;20197;-58
2023/09/24 06:39:13;;;;;;;5.50;2.00;;;19.60;54.10;;;;;;5095061;28;20767;-59
2023/09/24 06:41:41;;;;;;;6.35;2.10;;;19.60;54.10;;;;;;5095351;28;20201;-58
2023/09/24 06:44:10;;;;;;;4.88;1.85;;;19.60;54.10;;;;;;5094975;28;20703;-57
2023/09/24 06:46:39;;;;;;;3.10;1.75;;;19.70;54.20;;;;;;5095066;28;20197;-57
2023/09/24 06:49:06;;;;;;;2.38;1.67;;;19.60;54.20;;;;;;5095510;28;20214;-58
2023/09/24 06:51:33;;;;;;;2.97;1.85;;;19.60;54.20;;;;;;5094966;28;20214;-60
2023/09/24 06:54:01;;;;;;;5.70;2.08;;;19.60;54.20;;;;;;5095456;28;20221;-59
2023/09/24 06:56:28;;;;;;;4.07;2.10;;;19.60;54.30;;;;;;5094795;28;20255;-60
2023/09/24 06:58:55;;;;;;;4.95;2.00;;;19.70;54.30;;;;;;5094584;28;20322;-56
2023/09/24 07:01:23;;;;;;;7.47;1.60;;;19.60;54.30;;;;;;5095123;28;20276;-58
2023/09/24 07:03:51;;;;;;;4.10;1.75;;;19.60;54.30;;;;;;5095282;28;20225;-56
2023/09/24 07:06:18;;;;;;;4.20;2.08;;;19.60;54.30;;;;;;5094395;28;20185;-58
2023/09/24 07:08:46;;;;;;;3.50;1.63;;;19.60;54.40;;;;;;5094878;28;20312;-56
2023/09/24 07:11:27;;;;;;;3.67;2.22;;;19.60;54.30;;;;;;5094206;28;20611;-55
2023/09/24 07:13:55;;;;;;;4.65;2.25;;;19.60;54.40;;;;;;5094396;28;20222;-59
2023/09/24 07:16:26;;;;;;;3.42;1.90;;;19.60;54.40;;;;;;5094866;28;20182;-53
2023/09/24 07:18:56;;;;;;;3.53;1.85;;;19.60;54.40;;;;;;5094539;28;20749;-53
2023/09/24 07:21:26;;;;;;;4.35;1.90;;;19.60;54.40;;;;;;5094369;28;20187;-54
2023/09/24 07:23:54;;;;;;;3.78;1.88;;;19.60;54.40;;;;;;5094581;28;20217;-56
2023/09/24 07:26:22;;;;;;;4.72;2.00;;;19.60;54.50;;;;;;5094611;28;20205;-54
2023/09/24 07:28:53;;;;;;;2.97;1.63;;;19.60;54.50;;;;;;5093828;28;20263;-55
2023/09/24 07:31:22;;;;;;;3.13;1.60;;;19.60;54.50;;;;;;5094128;28;20692;-56
2023/09/24 07:33:50;;;;;;;3.72;2.13;;;19.60;54.60;;;;;;5094558;28;20213;-61
2023/09/24 07:36:29;;;;;;;5.00;1.92;;;19.60;54.60;;;;;;5093920;28;20677;-60
2023/09/24 07:38:59;;;;;;;3.97;1.92;;;19.60;54.60;;;;;;5094097;28;20270;-56
2023/09/24 07:41:26;;;;;;;2.78;1.63;;;19.60;54.60;;;;;;5094163;28;20201;-58
2023/09/24 07:43:53;;;;;;;3.45;1.85;;;19.60;54.70;;;;;;5094119;28;20210;-57
2023/09/24 07:46:20;;;;;;;3.15;1.80;;;19.60;54.70;;;;;;5094249;28;20209;-57
2023/09/24 07:48:49;;;;;;;4.70;2.03;;;19.60;54.70;;;;;;5094121;28;20225;-57
2023/09/24 07:51:18;;;;;;;3.95;2.08;;;19.60;54.70;;;;;;5094060;28;20214;-53
2023/09/24 07:53:45;;;;;;;3.40;1.70;;;19.60;54.80;;;;;;5094197;28;20217;-55
2023/09/24 07:56:13;;;;;;;5.28;2.28;;;19.60;54.80;;;;;;5093491;28;20770;-57
2023/09/24 07:58:43;;;;;;;4.00;1.83;;;19.70;55.00;;;;;;5093967;28;20300;-56
2023/09/24 08:01:11;;;;;;;3.00;1.60;;;19.60;54.80;;;;;;5093580;28;20186;-60
2023/09/24 08:03:39;;;;;;;2.60;1.50;;;19.60;54.80;;;;;;5093807;28;20214;-59
2023/09/24 08:06:07;;;;;;;6.03;1.83;;;19.60;54.90;;;;;;5093828;28;20596;-54
2023/09/24 08:08:36;;;;;;;3.20;1.83;;;19.60;54.90;;;;;;5093741;28;20218;-59
2023/09/24 08:11:03;;;;;;;2.78;1.90;;;19.60;55.00;;;;;;5093175;28;20796;-57
2023/09/24 08:13:31;;;;;;;3.00;1.67;;;19.60;55.00;;;;;;5093740;28;20218;-59
2023/09/24 08:15:59;;;;;;;4.50;1.85;;;19.60;55.00;;;;;;5093270;28;20282;-60
2023/09/24 08:18:26;;;;;;;5.65;1.80;;;19.60;55.10;;;;;;5093409;28;20218;-59
2023/09/24 08:20:54;;;;;;;3.97;2.13;;;19.60;55.10;;;;;;5093503;28;20217;-58
2023/09/24 08:23:21;;;;;;;4.10;1.73;;;19.70;55.20;;;;;;5093329;28;20301;-54
2023/09/24 08:25:52;;;;;;;4.03;2.10;;;19.60;55.20;;;;;;5092833;28;20194;-57
2023/09/24 08:28:19;;;;;;;3.17;1.63;;;19.60;55.30;;;;;;5092717;28;20715;-57
2023/09/24 08:30:47;;;;;;;3.30;1.73;;;19.60;55.20;;;;;;5092973;28;20214;-58
2023/09/24 08:33:14;;;;;;;4.57;2.05;;;19.60;55.20;;;;;;5092870;28;20306;-57
2023/09/24 08:35:41;;;;;;;3.53;2.00;;;19.60;55.20;;;;;;5093252;28;20262;-54
2023/09/24 08:38:09;;;;;;;4.57;2.20;;;19.60;55.30;;;;;;5093218;28;20214;-59
2023/09/24 08:40:36;;;;;;;3.80;1.88;;;19.60;55.30;;;;;;5093015;28;20705;-57
2023/09/24 08:43:10;;;;;;;3.17;1.80;;;19.70;55.40;;;;;;5093044;28;20249;-56
2023/09/24 08:45:38;;;;;;;3.83;1.90;;;19.60;55.30;;;;;;5093076;28;20187;-57
2023/09/24 08:48:09;;;;;;;4.13;1.77;;;19.60;55.30;;;;;;5092537;28;20308;-61
2023/09/24 08:50:39;;;;;;;3.58;1.83;;;19.60;55.30;;;;;;5092787;28;20667;-59
2023/09/24 08:53:10;;;;;;;3.75;1.90;;;19.70;55.50;;;;;;5093052;28;20232;-53
2023/09/24 08:55:40;;;;;;;3.20;1.75;;;19.60;55.30;;;;;;5092452;28;20213;-58
2023/09/24 08:58:08;;;;;;;5.35;1.77;;;19.60;55.40;;;;;;5092729;28;20279;-57
2023/09/24 09:00:36;;;;;;;4.05;1.65;;;19.70;55.50;;;;;;5092801;28;20198;-57
2023/09/24 09:03:04;;;;;;;5.53;1.75;;;19.70;55.50;;;;;;5092248;28;20737;-57
2023/09/24 09:05:37;;;;;;;4.05;1.90;;;19.60;55.40;;;;;;5092714;28;20209;-54
2023/09/24 09:08:05;;;;;;;3.95;1.92;;;19.60;55.40;;;;;;5092587;28;20218;-57
2023/09/24 09:10:33;;;;;;;5.93;2.20;;;19.60;55.50;;;;;;5092291;28;20190;-54
2023/09/24 09:13:09;;;;;;;3.05;1.58;;;19.60;55.60;;;;;;5092604;28;20257;-57
2023/09/24 09:15:38;;;;;;;4.63;1.80;;;19.60;55.60;;;;;;5092244;28;20186;-58
2023/09/24 09:18:06;;;;;;;3.78;1.50;;;19.60;55.70;;;;;;5092328;28;20224;-58
2023/09/24 09:20:41;;;;;;;5.97;2.20;;;19.60;55.80;;;;;;5092425;28;20566;-59
2023/09/24 09:23:12;;;;;;;4.65;1.63;;;19.60;55.80;;;;;;5092797;28;20221;-54
2023/09/24 09:25:49;;;;;;;4.70;1.90;;;19.60;55.80;;;;;;5091959;28;20281;-57
2023/09/24 09:28:21;;;;;;;2.80;1.77;;;19.60;55.90;;;;;;5092112;28;20217;-56
2023/09/24 09:31:05;;;;;;;5.03;2.03;;;19.60;55.90;;;;;;5092245;28;20183;-57
2023/09/24 09:33:34;;;;;;;5.72;2.10;;;19.60;56.00;;;;;;5091939;28;20225;-58
2023/09/24 09:36:02;;;;;;;3.72;1.65;;;19.60;56.10;;;;;;5092332;28;20193;-55
2023/09/24 09:38:30;;;;;;;5.03;1.80;;;19.60;56.00;;;;;;5096759;28;20384;-58
2023/09/24 09:40:59;;;;;;;4.03;1.75;;;19.70;56.20;;;;;;5098741;28;20293;-57
2023/09/24 09:43:29;;;;;;;4.85;1.88;;;19.60;56.10;;;;;;5098650;28;20221;-55
2023/09/24 09:45:58;;;;;;;3.95;1.60;;;19.70;56.30;;;;;;5098719;28;20239;-53
2023/09/24 09:48:30;;;;;;;3.08;1.65;;;19.70;56.30;;;;;;5098394;28;20225;-55
2023/09/24 09:51:05;;;;;;;3.85;2.00;;;19.60;56.20;;;;;;5098442;28;20187;-55
2023/09/24 09:53:34;;;;;;;2.47;1.48;;;19.60;56.30;;;;;;5098736;28;20573;-56
2023/09/24 09:56:05;;;;;;;5.50;1.90;;;19.70;56.40;;;;;;5098341;28;20264;-58
2023/09/24 09:58:38;;;;;;;2.83;1.50;;;19.70;56.40;;;;;;5099078;28;20229;-58
2023/09/24 10:01:07;;;;;;;3.15;1.50;;;19.60;56.40;;;;;;5098632;28;20194;-56
2023/09/24 10:03:38;;;;;;;3.28;1.63;;;19.70;56.60;;;;;;5098549;28;20217;-56
2023/09/24 10:06:09;;;;;;;3.75;1.45;;;19.70;56.60;;;;;;5098897;28;20186;-59
2023/09/24 10:08:41;;;;;;;4.40;2.00;;;19.70;56.60;;;;;;5098621;28;20245;-51
2023/09/24 10:13:52;;;;;;;5.20;2.00;;;19.70;56.70;;;;;;5096512;28;20223;-54
2023/09/24 10:16:46;;;;;;;2.13;1.48;;;19.70;56.60;;;;;;5098839;28;20187;-54
2023/09/24 10:19:14;;;;;;;6.00;1.65;;;19.70;56.80;;;;;;5098623;28;20224;-56
2023/09/24 10:21:43;;;;;;;3.85;1.48;;;19.60;56.60;;;;;;5098702;28;20193;-59
2023/09/24 10:24:41;;;;;;;3.63;1.60;;;19.70;56.80;;;;;;5098419;28;20240;-57
2023/09/24 10:27:08;;;;;;;3.28;1.40;;;19.70;56.90;;;;;;4996283;28;20206;-56
2023/09/24 10:30:06;;;;;;;3.67;1.88;;;19.70;56.90;;;;;;4996370;28;20206;-58
2023/09/24 10:32:51;;;;;;;3.38;1.58;;;19.70;57.10;;;;;;4996049;28;20662;-58
2023/09/24 10:35:20;;;;;;;3.72;1.88;;;19.70;57.10;;;;;;4996354;28;20304;-59
2023/09/24 10:38:01;;;;;;;3.42;1.73;;;19.70;57.00;;;;;;4996198;28;20217;-55
2023/09/24 10:40:29;;;;;;;5.32;1.60;;;19.70;57.10;;;;;;4996128;28;20190;-54
2023/09/24 10:43:16;;;;;;;3.63;2.10;;;19.70;57.10;;;;;;4996364;28;20785;-54
2023/09/24 10:45:45;;;;;;;3.10;1.45;;;19.70;57.20;;;;;;4996259;28;20209;-54
2023/09/24 10:48:14;;;;;;;2.58;1.70;;;19.70;57.20;;;;;;4995927;28;20226;-55
2023/09/24 10:50:43;;;;;;;3.55;1.70;;;19.70;57.90;;;;;;4992155;28;20194;-55
2023/09/24 10:53:10;;;;;;;5.88;1.75;;;19.70;57.30;;;;;;4993030;28;20245;-54
2023/09/24 10:55:41;;;;;;;3.45;1.42;;;19.70;57.30;;;;;;4992524;28;20665;-57
2023/09/24 10:58:23;;;;;;;2.47;1.35;;;19.70;57.30;;;;;;4993260;28;20225;-56
2023/09/24 11:00:53;;;;;;;4.07;1.67;;;19.70;57.30;;;;;;5018062;28;20260;-60
2023/09/24 11:03:20;;;;;;;2.42;1.50;;;19.70;57.40;;;;;;5093565;28;20222;-55
2023/09/24 11:05:48;;;;;;;3.22;1.67;;;19.70;57.40;;;;;;5095091;28;20190;-54
2023/09/24 11:08:17;;;;;;;2.22;1.40;;;19.70;57.40;;;;;;5094821;28;20296;-56
2023/09/24 11:10:49;;;;;;;3.78;1.67;;;19.70;57.40;;;;;;5094693;28;20198;-56
2023/09/24 11:13:17;;;;;;;3.20;1.52;;;19.70;57.40;;;;;;5094536;28;20726;-55
2023/09/24 11:15:44;;;;;;;3.05;1.73;;;19.70;57.40;;;;;;5094862;28;20187;-53
2023/09/24 11:18:14;;;;;;;5.70;1.58;;;19.70;57.40;;;;;;5094352;28;20217;-59
2023/09/24 11:20:49;;;;;;;4.70;1.60;;;19.80;57.50;;;;;;5094439;28;20726;-56
2023/09/24 11:23:17;;;;;;;3.80;1.85;;;19.70;57.50;;;;;;5094675;28;20300;-57
2023/09/24 11:25:48;;;;;;;4.18;1.65;;;19.70;57.50;;;;;;5094365;28;20273;-56
2023/09/24 11:28:16;;;;;;;2.80;1.33;;;19.70;57.50;;;;;;5094481;28;20301;-50
2023/09/24 11:30:45;;;;;;;2.80;1.42;;;19.80;57.70;;;;;;5094465;28;20235;-57
2023/09/24 11:33:21;;;;;;;3.90;1.58;;;19.80;57.60;;;;;;5094032;28;20325;-60
2023/09/24 11:36:15;;;;;;;2.63;1.40;;;19.70;57.60;;;;;;5094023;28;20268;-58
2023/09/24 11:39:01;;;;;;;3.08;1.50;;;19.80;57.70;;;;;;5090935;28;20252;-56
2023/09/24 11:41:28;;;;;;;3.90;1.55;;;19.80;57.80;;;;;;5094096;28;20213;-53
2023/09/24 11:43:59;;;;;;;2.58;1.33;;;19.80;57.70;;;;;;5094381;28;20274;-51
2023/09/24 11:46:28;;;;;;;2.80;1.65;;;19.70;57.70;;;;;;5093962;28;20217;-58
2023/09/24 11:48:58;;;;;;;3.40;1.70;;;19.80;57.80;;;;;;5093898;28;20251;-55
2023/09/24 11:51:26;;;;;;;3.35;1.83;;;19.80;57.80;;;;;;5093693;28;20240;-58
2023/09/24 11:53:54;;;;;;;4.40;1.70;;;19.80;57.80;;;;;;5093696;28;20301;-51
2023/09/24 11:56:21;;;;;;;3.72;1.75;;;19.80;57.80;;;;;;5093441;28;20271;-55
2023/09/24 11:58:48;;;;;;;3.50;1.65;;;19.80;57.80;;;;;;5093801;28;20699;-54
2023/09/24 12:01:15;;;;;;;3.13;1.65;;;19.80;57.80;;;;;;5093582;28;20186;-55
2023/09/24 12:03:45;;;;;;;3.78;1.70;;;19.80;57.80;;;;;;5094042;28;20304;-60
2023/09/24 12:06:14;;;;;;;3.22;1.73;;;19.80;57.80;;;;;;5093800;28;20186;-57
2023/09/24 12:08:41;;;;;;;3.38;1.52;;;19.80;57.80;;;;;;5093476;28;20220;-59
2023/09/24 12:11:08;;;;;;;3.10;1.80;;;19.80;57.90;;;;;;5093494;28;20187;-58
2023/09/24 12:13:35;;;;;;;4.00;1.60;;;19.80;58.00;;;;;;5093378;28;20312;-54
2023/09/24 12:16:03;;;;;;;2.13;1.40;;;19.80;57.90;;;;;;5092838;28;20246;-52
2023/09/24 12:18:30;;;;;;;6.00;1.60;;;19.80;57.90;;;;;;5093638;28;20296;-54
2023/09/24 12:20:58;;;;;;;3.08;1.58;;;19.80;57.90;;;;;;5093571;28;20186;-56
2023/09/24 12:23:26;;;;;;;2.30;1.40;;;19.80;58.00;;;;;;5093376;28;20265;-60
2023/09/24 12:25:54;;;;;;;4.72;1.60;;;19.80;58.00;;;;;;5093515;28;20191;-55
2023/09/24 12:28:21;;;;;;;3.75;1.58;;;19.80;58.10;;;;;;5093597;28;20214;-54
2023/09/24 12:30:48;;;;;;;3.42;1.48;;;19.80;58.10;;;;;;5092934;28;20202;-54
2023/09/24 12:33:15;;;;;;;2.35;1.60;;;19.80;58.10;;;;;;5093089;28;20230;-58
2023/09/24 12:35:43;;;;;;;4.72;1.60;;;19.90;58.30;;;;;;5093293;28;20218;-56
2023/09/24 12:38:10;;;;;;;5.68;1.55;;;19.90;58.20;;;;;;5092912;28;20221;-56
2023/09/24 12:40:38;;;;;;;4.68;1.73;;;19.90;58.20;;;;;;5092862;28;20277;-56
2023/09/24 12:43:06;;;;;;;3.78;1.38;;;19.80;58.10;;;;;;5092801;28;20695;-59
2023/09/24 12:45:33;;;;;;;3.53;1.50;;;19.90;58.20;;;;;;5092861;28;20190;-52
2023/09/24 12:48:02;;;;;;;3.00;1.42;;;19.90;58.30;;;;;;5092763;28;20217;-56
2023/09/24 12:50:36;;;;;;;2.72;1.30;;;19.90;58.30;;;;;;5093012;28;20194;-59
2023/09/24 12:53:06;;;;;;;2.20;1.30;;;19.90;58.30;;;;;;5092675;28;20371;-53
2023/09/24 12:55:41;;;;;;;3.78;1.30;;;19.90;58.30;;;;;;5092393;28;20190;-56
2023/09/24 12:58:09;;;;;;;2.17;1.33;;;19.90;58.30;;;;;;5092891;28;20271;-56
2023/09/24 13:00:37;;;;;;;2.40;1.50;;;19.90;58.30;;;;;;5092652;28;20197;-58
2023/09/24 13:03:04;;;;;;;2.78;1.70;;;19.90;58.30;;;;;;5092699;28;20224;-58
2023/09/24 13:05:33;;;;;;;4.40;1.88;;;19.90;58.40;;;;;;5084707;28;20196;-55
2023/09/24 13:08:00;;;;;;;3.15;1.50;;;19.90;58.40;;;;;;5092110;28;20225;-59